createdAt,value
2022-08-02T00:00:12.368Z,3.70
2022-08-02T00:02:39.005Z,4.72
2022-08-02T00:05:06.312Z,4.00
2022-08-02T00:07:39.018Z,4.70
2022-08-02T00:10:09.116Z,4.47
2022-08-02T00:12:35.657Z,3.97
2022-08-02T00:15:02.345Z,4.28
2022-08-02T00:17:28.868Z,3.92
2022-08-02T00:19:55.380Z,3.90
2022-08-02T00:22:21.902Z,3.97
2022-08-02T00:24:48.437Z,4.10
2022-08-02T00:27:14.964Z,3.78
2022-08-02T00:29:50.437Z,4.18
2022-08-02T00:32:21.508Z,3.90
2022-08-02T00:34:48.537Z,4.30
2022-08-02T00:37:15.103Z,4.95
2022-08-02T00:39:44.861Z,4.00
2022-08-02T00:42:14.949Z,4.88
2022-08-02T00:44:42.113Z,4.25
2022-08-02T00:47:08.979Z,5.53
2022-08-02T00:49:35.586Z,4.40
2022-08-02T00:52:02.509Z,4.43
2022-08-02T00:54:29.173Z,4.68
2022-08-02T00:56:55.751Z,5.57
2022-08-02T00:59:22.267Z,4.68
2022-08-02T01:01:55.909Z,5.20
2022-08-02T01:04:31.515Z,4.35
2022-08-02T01:07:12.065Z,5.32
2022-08-02T01:09:40.231Z,5.32
2022-08-02T01:12:07.231Z,5.68
2022-08-02T01:14:33.892Z,4.72
2022-08-02T01:17:24.126Z,6.03
2022-08-02T01:20:25.252Z,5.47
2022-08-02T01:23:09.325Z,4.82
2022-08-02T01:25:57.918Z,4.82
2022-08-02T01:28:40.585Z,4.70
2022-08-02T01:31:19.580Z,5.97
2022-08-02T01:33:56.740Z,5.43
2022-08-02T01:36:27.401Z,5.35
2022-08-02T01:38:56.183Z,5.20
2022-08-02T01:41:25.660Z,5.82
2022-08-02T01:43:57.034Z,5.68
2022-08-02T01:46:25.361Z,5.25
2022-08-02T01:48:54.595Z,5.10
2022-08-02T01:51:44.482Z,5.75
2022-08-02T01:54:14.222Z,7.07
2022-08-02T01:56:42.499Z,5.30
2022-08-02T01:59:13.965Z,5.07
2022-08-02T02:01:41.918Z,6.00
2022-08-02T02:04:09.080Z,5.13
2022-08-02T02:06:37.855Z,6.05
2022-08-02T02:09:05.748Z,5.28
2022-08-02T02:12:14.452Z,6.10
2022-08-02T02:14:20.730Z,5.88
2022-08-02T02:16:49.360Z,5.20
2022-08-02T02:19:21.375Z,5.15
2022-08-02T02:21:49.344Z,7.38
2022-08-02T02:24:15.884Z,6.43
2022-08-02T02:26:51.886Z,6.28
2022-08-02T02:29:21.949Z,4.95
2022-08-02T02:31:52.630Z,5.05
2022-08-02T02:34:29.086Z,4.97
2022-08-02T02:36:58.082Z,5.60
2022-08-02T02:39:28.361Z,6.13
2022-08-02T02:41:58.917Z,5.72
2022-08-02T02:44:26.290Z,8.52
2022-08-02T02:46:55.231Z,5.25
2022-08-02T02:49:23.136Z,5.28
2022-08-02T02:51:50.827Z,5.53
2022-08-02T02:54:30.905Z,5.05
2022-08-02T02:57:03.259Z,7.60
2022-08-02T02:59:30.739Z,5.35
2022-08-02T03:01:58.929Z,5.97
2022-08-02T03:04:28.006Z,5.25
2022-08-02T03:07:14.637Z,6.13
2022-08-02T03:09:41.241Z,6.13
2022-08-02T03:12:09.738Z,5.95
2022-08-02T03:14:42.761Z,5.60
2022-08-02T03:17:09.308Z,6.80
2022-08-02T03:19:35.927Z,5.80
2022-08-02T03:22:02.426Z,5.72
2022-08-02T03:24:28.949Z,7.07
2022-08-02T03:26:56.060Z,5.68
2022-08-02T03:29:22.578Z,5.72
2022-08-02T03:31:49.773Z,6.68
2022-08-02T03:34:16.391Z,6.22
2022-08-02T03:36:43.713Z,6.82
2022-08-02T03:39:12.270Z,6.93
2022-08-02T03:41:39.641Z,6.03
2022-08-02T03:44:07.653Z,6.50
2022-08-02T03:46:34.853Z,6.30
2022-08-02T03:49:02.448Z,6.18
2022-08-02T03:51:29.100Z,6.90
2022-08-02T03:53:56.079Z,8.23
2022-08-02T03:56:23.603Z,9.60
2022-08-02T03:58:50.293Z,7.03
2022-08-02T04:01:16.910Z,5.78
2022-08-02T04:03:43.791Z,6.30
2022-08-02T04:06:10.348Z,5.72
2022-08-02T04:08:38.775Z,6.28
2022-08-02T04:11:25.082Z,7.72
2022-08-02T04:13:52.300Z,7.13
2022-08-02T04:16:31.436Z,7.40
2022-08-02T04:19:03.718Z,9.52
2022-08-02T04:21:49.102Z,7.20
2022-08-02T04:24:25.202Z,8.43
2022-08-02T04:26:57.786Z,7.40
2022-08-02T04:29:33.336Z,8.55
2022-08-02T04:32:00.888Z,7.90
2022-08-02T04:34:27.554Z,8.00
2022-08-02T04:36:54.882Z,7.65
2022-08-02T04:39:21.408Z,7.85
2022-08-02T04:41:48.007Z,7.72
2022-08-02T04:44:14.607Z,7.85
2022-08-02T04:46:42.975Z,8.93
2022-08-02T04:49:09.746Z,8.35
2022-08-02T04:51:37.903Z,7.82
2022-08-02T04:54:10.040Z,8.20
2022-08-02T04:59:07.193Z,8.60
2022-08-02T05:01:35.447Z,8.30
2022-08-02T05:04:02.836Z,8.43
2022-08-02T05:06:29.384Z,8.57
2022-08-02T05:08:55.893Z,8.52
2022-08-02T05:11:34.588Z,8.80
2022-08-02T05:14:04.200Z,8.95
2022-08-02T05:16:32.128Z,8.65
2022-08-02T05:19:02.798Z,9.57
2022-08-02T05:21:30.229Z,9.95
2022-08-02T05:23:56.987Z,9.23
2022-08-02T05:26:23.559Z,9.38
2022-08-02T05:28:50.119Z,9.45
2022-08-02T05:31:16.695Z,9.48
2022-08-02T05:33:43.265Z,10.20
2022-08-02T05:36:09.876Z,10.30
2022-08-02T05:38:37.480Z,9.95
2022-08-02T05:41:05.475Z,11.75
2022-08-02T05:43:32.247Z,10.27
2022-08-02T05:45:58.904Z,9.95
2022-08-02T05:48:30.668Z,10.27
2022-08-02T05:51:03.947Z,10.73
2022-08-02T05:54:10.884Z,10.63
2022-08-02T05:56:49.916Z,11.85
2022-08-02T05:59:40.220Z,11.13
2022-08-02T06:02:30.611Z,12.32
2022-08-02T06:05:11.330Z,12.10
2022-08-02T06:07:41.572Z,12.90
2022-08-02T06:10:09.461Z,13.57
2022-08-02T06:12:45.371Z,14.43
2022-08-02T06:15:14.205Z,12.77
2022-08-02T06:17:41.844Z,13.98
2022-08-02T06:20:13.321Z,13.60
2022-08-02T06:22:42.860Z,13.40
2022-08-02T06:25:11.892Z,13.35
2022-08-02T06:27:59.848Z,13.75
2022-08-02T06:30:26.689Z,13.48
2022-08-02T06:32:53.589Z,14.07
2022-08-02T06:35:20.557Z,13.68
2022-08-02T06:38:02.315Z,14.65
2022-08-02T06:43:09.866Z,13.60
2022-08-02T06:45:37.035Z,16.65
2022-08-02T06:48:04.742Z,14.07
2022-08-02T06:50:31.472Z,14.43
2022-08-02T06:52:58.016Z,14.50
2022-08-02T06:55:24.543Z,14.00
2022-08-02T06:57:51.375Z,14.25
2022-08-02T07:00:20.433Z,15.15
2022-08-02T07:02:47.044Z,14.65
2022-08-02T07:05:13.719Z,15.05
2022-08-02T07:07:40.420Z,15.65
2022-08-02T07:10:07.240Z,14.48
2022-08-02T07:12:34.477Z,16.15
2022-08-02T07:15:03.424Z,16.98
2022-08-02T07:17:30.379Z,16.92
2022-08-02T07:19:57.741Z,17.42
2022-08-02T07:22:26.786Z,17.67
2022-08-02T07:24:54.887Z,16.98
2022-08-02T07:27:21.446Z,15.73
2022-08-02T07:29:48.452Z,16.25
2022-08-02T07:32:16.732Z,17.00
2022-08-02T07:34:50.309Z,15.63
2022-08-02T07:37:35.278Z,15.35
2022-08-02T07:40:12.701Z,15.30
2022-08-02T07:42:41.589Z,15.50
2022-08-02T07:45:08.397Z,14.68
2022-08-02T07:47:39.227Z,13.88
2022-08-02T07:50:06.509Z,13.38
2022-08-02T07:52:33.069Z,13.70
2022-08-02T07:54:59.587Z,13.02
2022-08-02T07:57:26.156Z,11.95
2022-08-02T07:59:52.693Z,11.82
2022-08-02T08:02:19.231Z,12.38
2022-08-02T08:04:45.744Z,11.43
2022-08-02T08:07:12.287Z,10.27
2022-08-02T08:09:42.097Z,9.73
2022-08-02T08:12:10.130Z,9.07
2022-08-02T08:14:37.712Z,8.20
2022-08-02T08:17:05.764Z,8.60
2022-08-02T08:19:50.104Z,8.88
2022-08-02T08:22:18.538Z,8.20
2022-08-02T08:24:45.334Z,7.93
2022-08-02T08:27:14.565Z,7.80
2022-08-02T08:29:44.577Z,7.38
2022-08-02T08:32:16.243Z,7.10
2022-08-02T08:34:43.944Z,6.55
2022-08-02T08:37:16.776Z,6.68
2022-08-02T08:39:56.688Z,6.13
2022-08-02T08:42:29.155Z,6.03
2022-08-02T08:44:57.449Z,5.90
2022-08-02T08:47:48.136Z,5.57
2022-08-02T08:50:24.548Z,5.70
2022-08-02T08:53:03.599Z,5.55
2022-08-02T08:55:31.764Z,6.05
2022-08-02T08:57:59.754Z,5.43
2022-08-02T09:00:27.501Z,5.65
2022-08-02T09:02:53.999Z,5.63
2022-08-02T09:05:20.552Z,6.30
2022-08-02T09:07:51.695Z,5.60
2022-08-02T09:10:36.593Z,6.38
2022-08-02T09:13:38.934Z,5.30
2022-08-02T09:16:12.952Z,4.60
2022-08-02T09:18:44.384Z,4.60
2022-08-02T09:21:11.788Z,5.15
2022-08-02T09:23:40.177Z,5.10
2022-08-02T09:26:08.968Z,5.00
2022-08-02T09:28:40.965Z,5.30
2022-08-02T09:31:10.107Z,5.13
2022-08-02T09:33:39.203Z,5.30
2022-08-02T09:36:09.825Z,5.07
2022-08-02T09:38:36.966Z,5.18
2022-08-02T09:41:05.160Z,5.50
2022-08-02T09:43:36.777Z,5.65
2022-08-02T09:46:14.499Z,4.78
2022-08-02T09:48:52.937Z,4.80
2022-08-02T09:51:22.212Z,4.70
2022-08-02T09:54:01.928Z,4.15
2022-08-02T09:56:53.845Z,4.72
2022-08-02T09:59:22.206Z,4.28
2022-08-02T10:01:51.218Z,6.90
2022-08-02T10:04:53.574Z,4.60
2022-08-02T10:07:22.691Z,4.53
2022-08-02T10:09:50.685Z,4.38
2022-08-02T10:12:17.632Z,4.32
2022-08-02T10:14:45.405Z,4.20
2022-08-02T10:17:12.393Z,4.50
2022-08-02T10:20:02.434Z,4.65
2022-08-02T10:22:26.912Z,4.20
2022-08-02T10:24:54.233Z,4.20
2022-08-02T10:27:21.328Z,4.28
2022-08-02T10:29:55.030Z,4.97
2022-08-02T10:32:49.375Z,4.10
2022-08-02T10:35:25.655Z,4.20
2022-08-02T10:37:57.971Z,4.32
2022-08-02T10:40:26.198Z,3.95
2022-08-02T10:42:54.136Z,4.13
2022-08-02T10:45:22.459Z,4.18
2022-08-02T10:48:08.255Z,4.03
2022-08-02T10:50:47.095Z,4.03
2022-08-02T10:53:27.319Z,4.70
2022-08-02T10:55:55.371Z,4.00
2022-08-02T10:58:26.400Z,4.07
2022-08-02T11:00:57.771Z,3.88
2022-08-02T11:03:41.211Z,3.95
2022-08-02T11:06:25.112Z,4.00
2022-08-02T11:09:33.459Z,3.70
2022-08-02T11:12:09.070Z,3.65
2022-08-02T11:14:38.183Z,3.75
2022-08-02T11:17:05.829Z,3.90
2022-08-02T11:19:34.979Z,4.25
2022-08-02T11:22:06.199Z,3.80
2022-08-02T11:27:05.796Z,3.72
2022-08-02T11:29:38.522Z,3.80
2022-08-02T11:32:06.789Z,3.97
2022-08-02T11:34:37.538Z,3.47
2022-08-02T11:37:04.837Z,3.88
2022-08-02T11:39:31.709Z,3.70
2022-08-02T11:42:00.264Z,3.72
2022-08-02T11:44:28.165Z,3.88
2022-08-02T11:46:56.391Z,3.63
2022-08-02T11:49:23.237Z,4.05
2022-08-02T11:52:05.126Z,3.55
2022-08-02T11:54:35.240Z,3.60
2022-08-02T11:57:19.752Z,3.70
2022-08-02T11:59:56.827Z,3.88
2022-08-02T12:02:29.086Z,5.13
2022-08-02T12:05:01.122Z,3.90
2022-08-02T12:07:46.081Z,4.10
2022-08-02T12:10:19.431Z,3.90
2022-08-02T12:12:53.666Z,3.88
2022-08-02T12:15:37.704Z,3.97
2022-08-02T12:18:28.474Z,3.72
2022-08-02T12:20:55.065Z,3.80
2022-08-02T12:23:21.912Z,3.90
2022-08-02T12:26:00.876Z,3.90
2022-08-02T12:28:27.417Z,3.90
2022-08-02T12:30:58.040Z,4.30
2022-08-02T12:33:28.302Z,3.90
2022-08-02T12:35:55.684Z,3.87
2022-08-02T12:38:22.586Z,3.88
2022-08-02T12:40:49.403Z,3.95
2022-08-02T12:43:23.445Z,4.03
2022-08-02T12:45:53.308Z,3.90
2022-08-02T12:48:40.367Z,4.30
2022-08-02T12:51:22.239Z,3.90
2022-08-02T12:53:59.722Z,4.68
2022-08-02T12:56:31.857Z,3.70
2022-08-02T12:58:58.977Z,4.03
2022-08-02T13:01:28.070Z,3.80
2022-08-02T13:04:11.902Z,3.83
2022-08-02T13:06:43.970Z,3.80
2022-08-02T13:09:14.039Z,3.92
2022-08-02T13:11:43.243Z,4.22
2022-08-02T13:14:11.599Z,3.70
2022-08-02T13:16:39.780Z,3.47
2022-08-02T13:19:06.280Z,3.90
2022-08-02T13:21:41.656Z,3.70
2022-08-02T13:24:38.027Z,4.20
2022-08-02T13:27:08.505Z,3.78
2022-08-02T13:29:37.669Z,3.70
2022-08-02T13:32:04.327Z,4.03
2022-08-02T13:34:30.860Z,3.75
2022-08-02T13:36:57.428Z,3.83
2022-08-02T13:39:23.966Z,3.92
2022-08-02T13:41:50.481Z,4.03
2022-08-02T13:44:17.394Z,4.25
2022-08-02T13:46:45.547Z,3.97
2022-08-02T13:49:19.268Z,3.83
2022-08-02T13:51:47.463Z,4.07
2022-08-02T13:54:14.892Z,3.70
2022-08-02T13:56:41.456Z,3.72
2022-08-02T13:59:55.197Z,3.70
2022-08-02T14:01:56.588Z,3.78
2022-08-02T14:04:23.840Z,4.05
2022-08-02T14:06:50.532Z,4.25
2022-08-02T14:09:17.558Z,4.00
2022-08-02T14:11:45.281Z,3.95
2022-08-02T14:14:16.019Z,3.80
2022-08-02T14:16:44.744Z,3.85
2022-08-02T14:19:16.144Z,3.80
2022-08-02T14:21:48.375Z,3.65
2022-08-02T14:24:20.021Z,3.97
2022-08-02T14:26:47.573Z,4.40
2022-08-02T14:29:15.168Z,4.68
2022-08-02T14:31:44.726Z,4.10
2022-08-02T14:34:12.928Z,3.80
2022-08-02T14:36:39.514Z,3.75
2022-08-02T14:39:06.518Z,5.18
2022-08-02T14:41:58.144Z,4.20
2022-08-02T14:44:20.542Z,3.95
2022-08-02T14:46:47.055Z,4.90
2022-08-02T14:49:18.743Z,3.70
2022-08-02T14:51:53.919Z,3.95
2022-08-02T14:54:20.435Z,3.92
2022-08-02T14:56:55.848Z,7.22
2022-08-02T14:59:22.374Z,4.30
2022-08-02T15:01:48.993Z,4.00
2022-08-02T15:04:15.649Z,4.72
2022-08-02T15:06:42.222Z,4.20
2022-08-02T15:09:08.768Z,4.20
2022-08-02T15:11:46.931Z,4.47
2022-08-02T15:14:15.186Z,4.97
2022-08-02T15:16:55.308Z,4.40
2022-08-02T15:19:23.347Z,4.63
2022-08-02T15:21:56.852Z,4.63
2022-08-02T15:24:23.561Z,4.53
2022-08-02T15:26:50.716Z,4.13
2022-08-02T15:29:18.228Z,4.53
2022-08-02T15:31:45.067Z,3.80
2022-08-02T15:34:11.687Z,5.05
2022-08-02T15:36:38.222Z,5.97
2022-08-02T15:39:05.401Z,4.50
2022-08-02T15:41:32.401Z,4.60
2022-08-02T15:44:01.769Z,4.10
2022-08-02T15:46:32.191Z,4.93
2022-08-02T15:48:59.614Z,5.25
2022-08-02T15:51:27.109Z,4.47
2022-08-02T15:53:53.835Z,3.85
2022-08-02T15:56:23.992Z,5.13
2022-08-02T15:58:52.969Z,4.53
2022-08-02T16:01:37.146Z,4.63
2022-08-02T16:04:06.335Z,4.50
2022-08-02T16:06:33.962Z,4.35
2022-08-02T16:09:00.711Z,3.80
2022-08-02T16:11:27.276Z,4.63
2022-08-02T16:13:54.548Z,3.92
2022-08-02T16:16:23.339Z,4.18
2022-08-02T16:18:49.924Z,6.10
2022-08-02T16:21:16.742Z,4.00
2022-08-02T16:24:01.891Z,3.63
2022-08-02T16:26:34.269Z,4.97
2022-08-02T16:29:02.357Z,6.03
2022-08-02T16:31:29.293Z,4.60
2022-08-02T16:33:57.100Z,3.80
2022-08-02T16:36:25.471Z,4.55
2022-08-02T16:38:55.562Z,6.18
2022-08-02T16:41:23.029Z,4.25
2022-08-02T16:43:49.636Z,4.10
2022-08-02T16:46:16.227Z,4.45
2022-08-02T16:48:50.817Z,4.32
2022-08-02T16:51:18.644Z,4.60
2022-08-02T16:53:59.853Z,6.03
2022-08-02T16:56:28.472Z,6.25
2022-08-02T16:58:55.486Z,6.30
2022-08-02T17:01:27.532Z,4.00
2022-08-02T17:03:55.564Z,7.57
2022-08-02T17:06:26.197Z,5.97
2022-08-02T17:08:56.121Z,5.97
2022-08-02T17:11:25.627Z,4.20
2022-08-02T17:13:55.256Z,5.38
2022-08-02T17:16:25.742Z,4.75
2022-08-02T17:18:54.015Z,5.82
2022-08-02T17:21:20.981Z,3.90
2022-08-02T17:24:05.868Z,4.38
2022-08-02T17:26:35.467Z,4.40
2022-08-02T17:29:15.663Z,6.35
2022-08-02T17:32:05.303Z,4.75
2022-08-02T17:34:36.729Z,4.70
2022-08-02T17:37:05.855Z,4.85
2022-08-02T17:39:51.949Z,4.57
2022-08-02T17:42:19.777Z,4.85
2022-08-02T17:44:49.162Z,5.97
2022-08-02T17:47:16.148Z,6.20
2022-08-02T17:49:48.082Z,4.65
2022-08-02T17:52:50.557Z,5.80
2022-08-02T17:55:06.825Z,6.45
2022-08-02T17:57:57.640Z,5.35
2022-08-02T18:00:20.372Z,5.07
2022-08-02T18:02:54.908Z,6.47
2022-08-02T18:05:39.356Z,5.93
2022-08-02T18:08:08.690Z,5.15
2022-08-02T18:10:35.221Z,8.10
2022-08-02T18:13:03.238Z,5.03
2022-08-02T18:15:32.557Z,5.30
2022-08-02T18:18:00.185Z,6.00
2022-08-02T18:20:26.743Z,5.18
2022-08-02T18:22:55.688Z,5.72
2022-08-02T18:25:36.226Z,6.75
2022-08-02T18:28:13.102Z,5.43
2022-08-02T18:30:39.660Z,5.30
2022-08-02T18:33:57.452Z,5.00
2022-08-02T18:35:56.392Z,5.43
2022-08-02T18:38:27.005Z,5.55
2022-08-02T18:40:54.727Z,5.05
2022-08-02T18:43:25.534Z,6.00
2022-08-02T18:46:06.696Z,8.23
2022-08-02T18:48:46.871Z,6.93
2022-08-02T18:51:15.717Z,5.22
2022-08-02T18:53:45.262Z,4.65
2022-08-02T18:56:19.287Z,4.22
2022-08-02T18:58:49.236Z,4.57
2022-08-02T19:01:31.475Z,6.57
2022-08-02T19:04:01.956Z,5.50
2022-08-02T19:06:29.051Z,5.65
2022-08-02T19:09:05.701Z,5.07
2022-08-02T19:11:38.151Z,5.03
2022-08-02T19:14:05.047Z,6.65
2022-08-02T19:16:36.668Z,4.60
2022-08-02T19:19:07.613Z,6.03
2022-08-02T19:22:18.789Z,5.35
2022-08-02T19:24:23.279Z,5.22
2022-08-02T19:26:52.687Z,9.45
2022-08-02T19:29:42.297Z,4.75
2022-08-02T19:32:40.134Z,7.97
2022-08-02T19:34:56.187Z,4.22
2022-08-02T19:37:22.899Z,6.38
2022-08-02T19:39:52.783Z,6.33
2022-08-02T19:42:22.318Z,4.63
2022-08-02T19:44:48.888Z,7.30
2022-08-02T19:47:19.221Z,6.43
2022-08-02T19:49:48.809Z,7.05
2022-08-02T19:52:21.681Z,9.43
2022-08-02T19:54:55.482Z,7.47
2022-08-02T19:57:22.946Z,8.07
2022-08-02T19:59:51.924Z,9.15
2022-08-02T20:02:18.945Z,8.57
2022-08-02T20:04:50.168Z,6.95
2022-08-02T20:07:54.264Z,6.82
2022-08-02T20:10:06.956Z,5.55
2022-08-02T20:12:41.569Z,7.05
2022-08-02T20:15:14.992Z,9.75
2022-08-02T20:17:47.146Z,9.60
2022-08-02T20:20:14.473Z,8.73
2022-08-02T20:22:59.265Z,9.23
2022-08-02T20:25:29.425Z,8.75
2022-08-02T20:27:56.008Z,6.53
2022-08-02T20:30:25.337Z,8.43
2022-08-02T20:32:58.887Z,9.18
2022-08-02T20:35:41.424Z,9.80
2022-08-02T20:38:09.547Z,9.45
2022-08-02T20:40:41.156Z,7.50
2022-08-02T20:43:13.389Z,8.32
2022-08-02T20:45:46.247Z,6.63
2022-08-02T20:48:12.804Z,7.70
2022-08-02T20:50:49.201Z,10.18
2022-08-02T20:53:23.499Z,7.38
2022-08-02T20:56:04.792Z,8.90
2022-08-02T20:58:33.398Z,6.95
2022-08-02T21:01:00.224Z,7.25
2022-08-02T21:03:38.669Z,9.68
2022-08-02T21:06:07.744Z,7.07
2022-08-02T21:08:34.641Z,5.85
2022-08-02T21:11:01.305Z,6.20
2022-08-02T21:13:46.651Z,9.25
2022-08-02T21:16:22.849Z,7.45
2022-08-02T21:18:55.633Z,9.25
2022-08-02T21:21:27.114Z,6.78
2022-08-02T21:23:54.471Z,7.32
2022-08-02T21:26:25.711Z,9.32
2022-08-02T21:28:56.982Z,10.20
2022-08-02T21:31:30.101Z,6.88
2022-08-02T21:34:00.129Z,6.97
2022-08-02T21:36:30.480Z,8.13
2022-08-02T21:39:00.174Z,7.90
2022-08-02T21:41:39.658Z,9.40
2022-08-02T21:44:16.849Z,10.10
2022-08-02T21:46:50.489Z,8.35
2022-08-02T21:49:18.467Z,7.85
2022-08-02T21:51:49.684Z,7.70
2022-08-02T21:54:20.412Z,8.80
2022-08-02T21:59:26.331Z,9.73
2022-08-02T22:01:57.045Z,7.88
2022-08-02T22:04:25.847Z,7.78
2022-08-02T22:06:53.689Z,8.43
2022-08-02T22:09:43.146Z,8.85
2022-08-02T22:12:09.978Z,6.95
2022-08-02T22:14:39.597Z,8.00
2022-08-02T22:17:08.749Z,7.30
2022-08-02T22:19:36.004Z,6.60
2022-08-02T22:22:02.770Z,6.43
2022-08-02T22:24:29.822Z,7.30
2022-08-02T22:26:57.089Z,8.80
2022-08-02T22:29:23.715Z,15.68
2022-08-02T22:31:50.299Z,5.65
2022-08-02T22:34:37.328Z,6.82
2022-08-02T22:37:05.819Z,8.00
2022-08-02T22:39:34.213Z,7.97
2022-08-02T22:42:05.729Z,7.43
2022-08-02T22:44:34.468Z,8.00
2022-08-02T22:47:06.886Z,6.53
2022-08-02T22:49:37.683Z,7.80
2022-08-02T22:52:12.285Z,7.85
2022-08-02T22:54:41.033Z,5.72
2022-08-02T22:57:11.262Z,7.40
2022-08-02T22:59:39.736Z,7.15
2022-08-02T23:02:07.050Z,8.13
2022-08-02T23:04:33.660Z,11.30
2022-08-02T23:07:00.309Z,9.93
2022-08-02T23:09:26.862Z,7.32
2022-08-02T23:11:53.670Z,10.90
2022-08-02T23:14:20.367Z,6.90
2022-08-02T23:17:05.517Z,8.05
2022-08-02T23:19:50.356Z,6.47
2022-08-02T23:22:27.898Z,5.72
2022-08-02T23:24:57.580Z,7.47
2022-08-02T23:27:24.996Z,10.52
2022-08-02T23:29:51.521Z,9.10
2022-08-02T23:32:18.444Z,6.10
2022-08-02T23:34:50.090Z,7.00
2022-08-02T23:37:16.681Z,7.18
2022-08-02T23:39:43.422Z,6.85
2022-08-02T23:42:10.140Z,7.45
2022-08-02T23:44:36.711Z,6.55
2022-08-02T23:47:03.356Z,6.13
2022-08-02T23:49:29.963Z,7.25
2022-08-02T23:52:01.074Z,8.18
2022-08-02T23:54:28.830Z,7.78
2022-08-02T23:56:55.640Z,7.72
2022-08-02T23:59:22.571Z,7.43
